Flight Track Log - Related Links

Times and Time Zones

All times are in EDT time to prevent confusion due to time zone crossing. See the ASA51 flight status page for this flight to view local times or setup timezone preferences in your user account.


Time Position Orientation Groundspeed Altitude Reporting Facility
EDT Latitude Longitude Course Direction KTS MPH feet Rate Location/Type
Wed 01:15:14 AM 70.1000 -148.2667 185° South 260 299 9,300  Level Anchorage Center
Wed 01:16:15 AM 70.0167 -148.3000 188° South 320 368 12,200 3,421 Climbing Anchorage Center
Wed 01:17:15 AM 69.9333 -148.3167 184° South 350 403 16,200 3,950 Climbing Anchorage Center
Wed 01:18:15 AM 69.8333 -148.3667 190° South 370 426 20,100 3,400 Climbing Anchorage Center
Wed 01:19:15 AM 69.7333 -148.4000 187° South 380 437 23,000 2,700 Climbing Anchorage Center
Wed 01:20:00 AM 69.5932 -148.6080 185° South  Level Estimated
Wed 01:20:15 AM 69.6167 -148.4333 186° South 400 460 25,500  Level Anchorage Center
Wed 01:21:15 AM 69.5333 -148.4667 188° South 410 472 27,900 2,550 Climbing Anchorage Center
Wed 01:22:15 AM 69.4167 -148.5000 186° South 410 472 30,600 2,550 Climbing Anchorage Center
Wed 01:23:15 AM 69.3000 -148.5333 186° South 410 472 33,000 2,182 Climbing Anchorage Center
Wed 01:24:16 AM 69.1833 -148.5667 186° South 400 460 35,000 992 Climbing Anchorage Center
Wed 01:25:16 AM 69.0833 -148.6167 190° South 410 472 35,000  Level Anchorage Center
Wed 01:26:16 AM 68.9667 -148.6500 186° South 410 472 35,000  Level Anchorage Center
Wed 01:27:16 AM 68.8500 -148.6833 186° South 400 460 35,000  Level Anchorage Center
Wed 01:28:16 AM 68.7500 -148.7167 187° South 400 460 35,000  Level Anchorage Center
Wed 01:29:16 AM 68.6333 -148.7667 189° South 400 460 35,000  Level Anchorage Center
Wed 01:30:16 AM 68.5167 -148.8000 186° South 400 460 35,000  Level Anchorage Center
Wed 01:31:16 AM 68.4167 -148.8333 187° South 400 460 35,000  Level Anchorage Center
Wed 01:32:16 AM 68.3000 -148.8667 186° South 400 460 35,000  Level Anchorage Center
Wed 01:33:16 AM 68.1833 -148.9000 186° South 400 460 35,000  Level Anchorage Center
Wed 01:34:16 AM 68.0833 -148.9333 187° South 400 460 35,000  Level Anchorage Center
Wed 01:35:16 AM 67.9500 -148.9667 185° South 390 449 35,000  Level Anchorage Center
Wed 01:36:17 AM 67.8500 -149.0000 187° South 400 460 35,000  Level Anchorage Center
Wed 01:37:17 AM 67.7333 -149.0333 186° South 390 449 35,000  Level Anchorage Center
Wed 01:38:17 AM 67.6167 -149.0667 186° South 400 460 35,000  Level Anchorage Center
Wed 01:39:17 AM 67.5167 -149.1000 187° South 400 460 35,000  Level Anchorage Center
Wed 01:40:17 AM 67.4000 -149.1333 186° South 400 460 35,000  Level Anchorage Center
Wed 01:41:17 AM 67.3000 -149.1667 187° South 390 449 35,000  Level Anchorage Center
Wed 01:42:17 AM 67.1833 -149.2000 186° South 390 449 35,000  Level Anchorage Center
Wed 01:43:17 AM 67.0833 -149.2167 184° South 400 460 35,000  Level Anchorage Center
Wed 01:44:17 AM 66.9667 -149.2500 186° South 390 449 35,000  Level Anchorage Center
Wed 01:45:17 AM 66.8667 -149.2833 187° South 390 449 35,000  Level Anchorage Center
Wed 01:46:17 AM 66.7500 -149.3167 186° South 390 449 35,000  Level Anchorage Center
Wed 01:47:17 AM 66.6500 -149.3333 184° South 400 460 35,000  Level Anchorage Center
Wed 01:48:18 AM 66.5333 -149.3667 186° South 400 460 35,000  Level Anchorage Center
Wed 01:49:18 AM 66.4333 -149.4000 188° South 400 460 35,000  Level Anchorage Center
Wed 01:50:18 AM 66.3167 -149.4167 183° South 410 472 35,000  Level Anchorage Center
Wed 01:51:18 AM 66.2167 -149.4500 188° South 400 460 35,000  Level Anchorage Center
Wed 01:52:18 AM 66.1000 -149.4833 187° South 400 460 35,000  Level Anchorage Center
Wed 01:53:18 AM 65.9833 -149.5000 183° South 400 460 35,000  Level Anchorage Center
Wed 01:54:18 AM 65.8833 -149.5333 188° South 400 460 35,000  Level Anchorage Center
Wed 01:55:19 AM 65.7667 -149.5667 187° South 390 449 35,000  Level Anchorage Center
Wed 01:56:19 AM 65.6667 -149.5833 184° South 390 449 35,000  Level Anchorage Center
Wed 01:57:19 AM 65.5500 -149.6167 187° South 390 449 35,000  Level Anchorage Center
Wed 01:58:19 AM 65.4500 -149.6500 188° South 390 449 35,000  Level Anchorage Center
Wed 01:59:19 AM 65.3500 -149.6667 184° South 380 437 35,000  Level Anchorage Center
Wed 02:00:19 AM 65.2333 -149.7000 187° South 390 449 35,000  Level Anchorage Center
Wed 02:01:19 AM 65.1333 -149.7167 184° South 380 437 35,000  Level Anchorage Center
Wed 02:02:19 AM 65.0333 -149.7500 188° South 380 437 35,000  Level Anchorage Center
Wed 02:03:19 AM 64.9167 -149.7667 183° South 380 437 35,000  Level Anchorage Center
Wed 02:04:19 AM 64.8167 -149.8000 188° South 380 437 35,000  Level Anchorage Center
Wed 02:05:20 AM 64.7167 -149.8167 184° South 380 437 35,000  Level Anchorage Center
Wed 02:06:20 AM 64.6000 -149.8500 187° South 380 437 35,000  Level Anchorage Center
Wed 02:07:20 AM 64.5000 -149.8667 184° South 390 449 35,000  Level Anchorage Center
Wed 02:08:20 AM 64.4000 -149.9000 188° South 380 437 35,000  Level Anchorage Center
Wed 02:09:20 AM 64.2833 -149.9167 184° South 390 449 35,000  Level Anchorage Center
Wed 02:10:20 AM 64.1833 -149.9500 188° South 380 437 35,000  Level Anchorage Center
Wed 02:11:20 AM 64.0833 -149.9667 184° South 380 437 35,000  Level Anchorage Center
Wed 02:12:20 AM 63.9667 -149.9833 184° South 380 437 35,000  Level Anchorage Center
Wed 02:13:20 AM 63.8667 -150.0167 188° South 380 437 35,000  Level Anchorage Center
Wed 02:14:21 AM 63.7667 -150.0333 184° South 390 449 35,000  Level Anchorage Center
Wed 02:15:21 AM 63.6500 -150.0500 184° South 380 437 35,000  Level Anchorage Center
Wed 02:16:21 AM 63.5500 -150.0833 188° South 380 437 35,000  Level Anchorage Center
Wed 02:17:21 AM 63.4500 -150.1000 184° South 380 437 35,000  Level Anchorage Center
Wed 02:18:21 AM 63.3333 -150.1333 187° South 370 426 35,000  Level Anchorage Center
Wed 02:19:21 AM 63.2333 -150.1500 184° South 380 437 35,000 50 Level Anchorage Center
Wed 02:20:22 AM 63.1333 -150.1667 184° South 380 437 35,100  Climbing Anchorage Center
Wed 02:21:22 AM 63.0167 -150.1833 184° South 390 449 35,000 -50 Descending Anchorage Center
Wed 02:22:22 AM 62.9167 -150.2167 189° South 380 437 35,000  Level Anchorage Center
Wed 02:23:22 AM 62.8167 -150.2333 184° South 380 437 35,000  Level Anchorage Center
Wed 02:24:22 AM 62.7000 -150.2500 184° South 360 414 35,000 -400 Level Anchorage Center
Wed 02:25:22 AM 62.6000 -150.2667 184° South 380 437 34,200 -2,050 Descending Anchorage Center
Wed 02:26:22 AM 62.4833 -150.3000 188° South 380 437 30,900 -3,400 Descending Anchorage Center
Wed 02:27:22 AM 62.3667 -150.3167 184° South 370 426 27,400 -3,250 Descending Anchorage Center
Wed 02:28:22 AM 62.2667 -150.3333 184° South 370 426 24,400 -2,500 Descending Anchorage Center
Wed 02:29:22 AM 62.1833 -150.3500 185° South 350 403 22,400 -2,182 Descending Anchorage Center
Wed 02:30:23 AM 62.0833 -150.3667 184° South 320 368 20,000 -2,529 Descending Anchorage Center
Wed 02:31:23 AM 62.0000 -150.3833 185° South 310 357 17,300 -2,450 Descending Anchorage Center
Wed 02:32:23 AM 61.9167 -150.4000 185° South 300 345 15,100 -2,200 Descending Anchorage Center
Wed 02:34:00 AM 61.7540 -150.4329 183° South  Level FlightAware Approximate
Wed 02:41:00 AM 61.1741 -149.9982 154° Southeast  Level Estimated
Wed 02:42:00 AM 61.1741 -149.9982 154° Southeast  Level Estimated
Wed 02:43:00 AM 61.1741 -149.9982 154° Southeast  Level Estimated
Wed 02:44:00 AM 61.1741 -149.9982 154° Southeast  Level Estimated
Wed 02:45:00 AM 61.1741 -149.9982 154° Southeast  Level Estimated
Wed 02:46:00 AM 61.1741 -149.9982 154° Southeast  Level Estimated
Wed 02:47:00 AM 61.1741 -149.9982 154° Southeast  Level Estimated
Wed 02:48:00 AM 61.1741 -149.9982 154° Southeast  Level Estimated
Wed 02:49:00 AM 61.1741 -149.9982 154° Southeast  Level Estimated
Wed 02:50:00 AM 61.1741 -149.9982 154° Southeast  Level Estimated
Wed 02:51:00 AM 61.1741 -149.9982 154° Southeast  Level Estimated
Wed 02:52:00 AM 61.1741 -149.9982 154° Southeast  Level Estimated
Wed 02:53:00 AM 61.1741 -149.9982 154° Southeast  Level Estimated
Wed 02:54:00 AM 61.1741 -149.9982 154° Southeast  Level Estimated
Wed 02:55:00 AM 61.1741 -149.9982 154° Southeast  Level Estimated
Wed 02:56:00 AM 61.1741 -149.9982 154° Southeast  Level Estimated
Wed 02:57:00 AM 61.1741 -149.9982 154° Southeast  Level Estimated
Wed 02:58:00 AM 61.1741 -149.9982 154° Southeast  Level Estimated
Wed 02:59:00 AM 61.1741 -149.9982 154° Southeast  Level Estimated
Wed 03:00:00 AM 61.1741 -149.9982 154° Southeast  Level Estimated
Wed 03:01:00 AM 61.1741 -149.9982 154° Southeast  Level Estimated
Wed 03:02:00 AM 61.1741 -149.9982 154° Southeast  Level Estimated
Wed 03:03:00 AM 61.1741 -149.9982 154° Southeast  Level Estimated
Wed 03:04:00 AM 61.1741 -149.9982 154° Southeast  Level Estimated
Wed 03:05:00 AM 61.1741 -149.9982 154° Southeast  Level Estimated
Wed 03:06:00 AM 61.1741 -149.9982 154° Southeast  Level Estimated
Wed 03:07:00 AM 61.1741 -149.9982 154° Southeast  Level Estimated
Wed 03:08:00 AM 61.1741 -149.9982 154° Southeast  Level Estimated
Wed 03:09:00 AM 61.1741 -149.9982 154° Southeast  Level Estimated
Wed 03:10:00 AM 61.1741 -149.9982 154° Southeast  Level Estimated
Wed 03:11:00 AM 61.1741 -149.9982 154° Southeast  Level Estimated
Wed 03:12:00 AM 61.1741 -149.9982 154° Southeast  Level Estimated
Wed 03:13:00 AM 61.1741 -149.9982 154° Southeast  Level Estimated
Wed 03:14:00 AM 61.1741 -149.9982 154° Southeast  Level Estimated
Wed 03:15:00 AM 61.1741 -149.9982 154° Southeast  Level Estimated
Wed 03:16:00 AM 61.1741 -149.9982 154° Southeast  Level Estimated
Wed 03:17:00 AM 61.1741 -149.9982 154° Southeast  Level Estimated
Wed 03:18:00 AM 61.1741 -149.9982 154° Southeast  Level Estimated
Wed 03:19:00 AM 61.1741 -149.9982 154° Southeast  Level Estimated
Wed 03:20:00 AM 61.1741 -149.9982 154° Southeast  Level Estimated
Wed 03:21:00 AM 61.1741 -149.9982 154° Southeast  Level Estimated

Login

Don't have an account? Register now (free) for customized features, flight alerts, and more!